sensor_id;sensor_type;location;lat;lon;timestamp;P1;durP1;ratioP1;P2;durP2;ratioP2
40154;SDS011;25875;48.202;16.334;2023-03-12T00:01:29;4.53;;;3.53;;
40154;SDS011;25875;48.202;16.334;2023-03-12T00:03:57;4.03;;;2.90;;
40154;SDS011;25875;48.202;16.334;2023-03-12T00:06:24;5.47;;;3.50;;
40154;SDS011;25875;48.202;16.334;2023-03-12T00:08:51;4.20;;;3.70;;
40154;SDS011;25875;48.202;16.334;2023-03-12T00:11:18;4.78;;;3.05;;
40154;SDS011;25875;48.202;16.334;2023-03-12T00:13:48;4.55;;;3.17;;
40154;SDS011;25875;48.202;16.334;2023-03-12T00:16:15;4.28;;;3.20;;
40154;SDS011;25875;48.202;16.334;2023-03-12T00:18:45;5.07;;;3.17;;
40154;SDS011;25875;48.202;16.334;2023-03-12T00:21:13;6.18;;;3.20;;
40154;SDS011;25875;48.202;16.334;2023-03-12T00:23:39;4.45;;;3.08;;
40154;SDS011;25875;48.202;16.334;2023-03-12T00:26:07;5.25;;;3.22;;
40154;SDS011;25875;48.202;16.334;2023-03-12T00:28:36;6.03;;;4.10;;
40154;SDS011;25875;48.202;16.334;2023-03-12T00:31:12;4.78;;;3.40;;
40154;SDS011;25875;48.202;16.334;2023-03-12T00:33:40;3.95;;;2.72;;
40154;SDS011;25875;48.202;16.334;2023-03-12T00:36:08;3.88;;;2.92;;
40154;SDS011;25875;48.202;16.334;2023-03-12T00:38:35;4.75;;;3.38;;
40154;SDS011;25875;48.202;16.334;2023-03-12T00:41:02;4.82;;;3.53;;
40154;SDS011;25875;48.202;16.334;2023-03-12T00:43:30;4.78;;;3.30;;
40154;SDS011;25875;48.202;16.334;2023-03-12T00:45:57;5.07;;;3.45;;
40154;SDS011;25875;48.202;16.334;2023-03-12T00:48:23;4.28;;;3.10;;
40154;SDS011;25875;48.202;16.334;2023-03-12T00:50:50;5.20;;;4.20;;
40154;SDS011;25875;48.202;16.334;2023-03-12T00:53:18;5.00;;;3.80;;
40154;SDS011;25875;48.202;16.334;2023-03-12T00:55:45;4.72;;;3.75;;
40154;SDS011;25875;48.202;16.334;2023-03-12T00:58:12;5.20;;;3.53;;
40154;SDS011;25875;48.202;16.334;2023-03-12T01:00:39;5.22;;;3.30;;
40154;SDS011;25875;48.202;16.334;2023-03-12T01:03:05;4.13;;;3.42;;
40154;SDS011;25875;48.202;16.334;2023-03-12T01:05:32;5.03;;;3.35;;
40154;SDS011;25875;48.202;16.334;2023-03-12T01:08:02;4.70;;;3.40;;
40154;SDS011;25875;48.202;16.334;2023-03-12T01:10:31;7.45;;;4.50;;
40154;SDS011;25875;48.202;16.334;2023-03-12T01:12:57;7.07;;;4.53;;
40154;SDS011;25875;48.202;16.334;2023-03-12T01:15:24;5.90;;;3.75;;
40154;SDS011;25875;48.202;16.334;2023-03-12T01:17:51;5.63;;;3.47;;
40154;SDS011;25875;48.202;16.334;2023-03-12T01:20:18;3.88;;;3.17;;
40154;SDS011;25875;48.202;16.334;2023-03-12T01:22:47;4.57;;;3.03;;
40154;SDS011;25875;48.202;16.334;2023-03-12T01:25:14;4.60;;;3.15;;
40154;SDS011;25875;48.202;16.334;2023-03-12T01:27:42;4.05;;;2.78;;
40154;SDS011;25875;48.202;16.334;2023-03-12T01:30:09;3.92;;;3.22;;
40154;SDS011;25875;48.202;16.334;2023-03-12T01:32:37;3.80;;;2.85;;
40154;SDS011;25875;48.202;16.334;2023-03-12T01:35:04;4.82;;;3.30;;
40154;SDS011;25875;48.202;16.334;2023-03-12T01:37:31;4.65;;;3.13;;
40154;SDS011;25875;48.202;16.334;2023-03-12T01:39:59;5.15;;;2.78;;
40154;SDS011;25875;48.202;16.334;2023-03-12T01:42:26;4.82;;;2.92;;
40154;SDS011;25875;48.202;16.334;2023-03-12T01:44:55;5.93;;;3.25;;
40154;SDS011;25875;48.202;16.334;2023-03-12T01:47:23;8.00;;;4.00;;
40154;SDS011;25875;48.202;16.334;2023-03-12T01:49:50;5.38;;;2.97;;
40154;SDS011;25875;48.202;16.334;2023-03-12T01:52:19;5.10;;;2.80;;
40154;SDS011;25875;48.202;16.334;2023-03-12T01:54:49;4.70;;;2.67;;
40154;SDS011;25875;48.202;16.334;2023-03-12T01:57:21;4.72;;;3.17;;
40154;SDS011;25875;48.202;16.334;2023-03-12T01:59:52;4.95;;;2.90;;
40154;SDS011;25875;48.202;16.334;2023-03-12T02:02:23;3.47;;;2.80;;
40154;SDS011;25875;48.202;16.334;2023-03-12T02:04:54;5.35;;;3.53;;
40154;SDS011;25875;48.202;16.334;2023-03-12T02:07:29;4.10;;;3.10;;
40154;SDS011;25875;48.202;16.334;2023-03-12T02:09:56;5.55;;;4.10;;
40154;SDS011;25875;48.202;16.334;2023-03-12T02:12:23;4.95;;;3.70;;
40154;SDS011;25875;48.202;16.334;2023-03-12T02:14:49;6.68;;;3.60;;
40154;SDS011;25875;48.202;16.334;2023-03-12T02:17:18;5.35;;;3.33;;
40154;SDS011;25875;48.202;16.334;2023-03-12T02:19:46;4.68;;;3.50;;
40154;SDS011;25875;48.202;16.334;2023-03-12T02:22:21;5.28;;;3.28;;
40154;SDS011;25875;48.202;16.334;2023-03-12T02:24:50;4.72;;;3.17;;
40154;SDS011;25875;48.202;16.334;2023-03-12T02:27:23;4.80;;;3.10;;
40154;SDS011;25875;48.202;16.334;2023-03-12T02:29:50;7.40;;;4.03;;
40154;SDS011;25875;48.202;16.334;2023-03-12T02:32:20;5.65;;;3.63;;
40154;SDS011;25875;48.202;16.334;2023-03-12T02:34:51;6.30;;;3.58;;
40154;SDS011;25875;48.202;16.334;2023-03-12T02:37:18;5.55;;;3.83;;
40154;SDS011;25875;48.202;16.334;2023-03-12T02:39:46;5.57;;;3.47;;
40154;SDS011;25875;48.202;16.334;2023-03-12T02:42:17;5.63;;;3.42;;
40154;SDS011;25875;48.202;16.334;2023-03-12T02:44:46;5.10;;;3.60;;
40154;SDS011;25875;48.202;16.334;2023-03-12T02:47:12;5.93;;;3.45;;
40154;SDS011;25875;48.202;16.334;2023-03-12T02:49:39;5.68;;;3.50;;
40154;SDS011;25875;48.202;16.334;2023-03-12T02:52:06;5.28;;;3.38;;
40154;SDS011;25875;48.202;16.334;2023-03-12T02:54:33;5.43;;;3.70;;
40154;SDS011;25875;48.202;16.334;2023-03-12T02:57:00;6.10;;;3.80;;
40154;SDS011;25875;48.202;16.334;2023-03-12T02:59:27;4.35;;;3.35;;
40154;SDS011;25875;48.202;16.334;2023-03-12T03:01:56;4.75;;;3.22;;
40154;SDS011;25875;48.202;16.334;2023-03-12T03:04:25;5.22;;;3.65;;
40154;SDS011;25875;48.202;16.334;2023-03-12T03:06:52;4.65;;;3.10;;
40154;SDS011;25875;48.202;16.334;2023-03-12T03:09:19;4.40;;;3.10;;
40154;SDS011;25875;48.202;16.334;2023-03-12T03:11:46;5.75;;;3.45;;
40154;SDS011;25875;48.202;16.334;2023-03-12T03:14:13;5.05;;;3.38;;
40154;SDS011;25875;48.202;16.334;2023-03-12T03:16:40;4.82;;;3.53;;
40154;SDS011;25875;48.202;16.334;2023-03-12T03:19:08;4.45;;;3.25;;
40154;SDS011;25875;48.202;16.334;2023-03-12T03:21:35;5.70;;;3.45;;
40154;SDS011;25875;48.202;16.334;2023-03-12T03:24:02;6.68;;;3.50;;
40154;SDS011;25875;48.202;16.334;2023-03-12T03:26:30;3.85;;;2.88;;
40154;SDS011;25875;48.202;16.334;2023-03-12T03:28:56;6.03;;;3.30;;
40154;SDS011;25875;48.202;16.334;2023-03-12T03:31:23;5.10;;;3.53;;
40154;SDS011;25875;48.202;16.334;2023-03-12T03:33:50;4.53;;;3.35;;
40154;SDS011;25875;48.202;16.334;2023-03-12T03:36:18;3.92;;;3.28;;
40154;SDS011;25875;48.202;16.334;2023-03-12T03:38:47;6.82;;;4.15;;
40154;SDS011;25875;48.202;16.334;2023-03-12T03:41:15;5.00;;;3.67;;
40154;SDS011;25875;48.202;16.334;2023-03-12T03:43:42;5.07;;;3.25;;
40154;SDS011;25875;48.202;16.334;2023-03-12T03:46:10;7.55;;;3.60;;
40154;SDS011;25875;48.202;16.334;2023-03-12T03:48:38;8.23;;;4.82;;
40154;SDS011;25875;48.202;16.334;2023-03-12T03:51:06;5.30;;;3.13;;
40154;SDS011;25875;48.202;16.334;2023-03-12T03:53:35;5.43;;;3.58;;
40154;SDS011;25875;48.202;16.334;2023-03-12T03:56:06;5.22;;;3.53;;
40154;SDS011;25875;48.202;16.334;2023-03-12T03:58:33;5.68;;;3.38;;
40154;SDS011;25875;48.202;16.334;2023-03-12T04:01:00;4.10;;;2.92;;
40154;SDS011;25875;48.202;16.334;2023-03-12T04:03:27;4.68;;;3.45;;
40154;SDS011;25875;48.202;16.334;2023-03-12T04:05:56;4.85;;;3.58;;
40154;SDS011;25875;48.202;16.334;2023-03-12T04:08:25;6.07;;;3.67;;
40154;SDS011;25875;48.202;16.334;2023-03-12T04:10:55;5.28;;;3.33;;
40154;SDS011;25875;48.202;16.334;2023-03-12T04:13:21;5.70;;;3.40;;
40154;SDS011;25875;48.202;16.334;2023-03-12T04:15:49;5.40;;;3.03;;
40154;SDS011;25875;48.202;16.334;2023-03-12T04:18:17;4.97;;;3.47;;
40154;SDS011;25875;48.202;16.334;2023-03-12T04:20:44;4.80;;;3.85;;
40154;SDS011;25875;48.202;16.334;2023-03-12T04:23:11;4.70;;;3.88;;
40154;SDS011;25875;48.202;16.334;2023-03-12T04:25:38;5.63;;;3.90;;
40154;SDS011;25875;48.202;16.334;2023-03-12T04:28:06;5.45;;;3.92;;
40154;SDS011;25875;48.202;16.334;2023-03-12T04:30:33;4.75;;;3.65;;
40154;SDS011;25875;48.202;16.334;2023-03-12T04:33:02;4.60;;;3.20;;
40154;SDS011;25875;48.202;16.334;2023-03-12T04:35:29;5.38;;;3.85;;
40154;SDS011;25875;48.202;16.334;2023-03-12T04:37:56;5.60;;;3.72;;
40154;SDS011;25875;48.202;16.334;2023-03-12T04:40:22;7.72;;;4.63;;
40154;SDS011;25875;48.202;16.334;2023-03-12T04:42:49;6.35;;;3.53;;
40154;SDS011;25875;48.202;16.334;2023-03-12T04:45:17;6.15;;;3.72;;
40154;SDS011;25875;48.202;16.334;2023-03-12T04:47:44;5.70;;;3.83;;
40154;SDS011;25875;48.202;16.334;2023-03-12T04:50:11;4.90;;;3.45;;
40154;SDS011;25875;48.202;16.334;2023-03-12T04:52:38;5.38;;;3.40;;
40154;SDS011;25875;48.202;16.334;2023-03-12T04:55:05;5.90;;;4.10;;
40154;SDS011;25875;48.202;16.334;2023-03-12T04:57:33;4.15;;;3.45;;
40154;SDS011;25875;48.202;16.334;2023-03-12T05:00:00;5.47;;;3.42;;
40154;SDS011;25875;48.202;16.334;2023-03-12T05:02:28;4.72;;;3.28;;
40154;SDS011;25875;48.202;16.334;2023-03-12T05:04:55;5.90;;;3.30;;
40154;SDS011;25875;48.202;16.334;2023-03-12T05:07:22;4.07;;;3.30;;
40154;SDS011;25875;48.202;16.334;2023-03-12T05:09:49;5.53;;;3.90;;
40154;SDS011;25875;48.202;16.334;2023-03-12T05:12:16;4.97;;;3.53;;
40154;SDS011;25875;48.202;16.334;2023-03-12T05:14:42;5.07;;;3.45;;
40154;SDS011;25875;48.202;16.334;2023-03-12T05:17:09;5.82;;;3.78;;
40154;SDS011;25875;48.202;16.334;2023-03-12T05:19:37;5.90;;;3.83;;
40154;SDS011;25875;48.202;16.334;2023-03-12T05:22:04;6.15;;;3.63;;
40154;SDS011;25875;48.202;16.334;2023-03-12T05:24:31;5.82;;;3.38;;
40154;SDS011;25875;48.202;16.334;2023-03-12T05:26:57;5.07;;;3.58;;
40154;SDS011;25875;48.202;16.334;2023-03-12T05:29:24;6.72;;;4.30;;
40154;SDS011;25875;48.202;16.334;2023-03-12T05:31:51;4.78;;;3.47;;
40154;SDS011;25875;48.202;16.334;2023-03-12T05:34:18;7.80;;;4.35;;
40154;SDS011;25875;48.202;16.334;2023-03-12T05:36:46;5.25;;;3.97;;
40154;SDS011;25875;48.202;16.334;2023-03-12T05:39:13;6.28;;;3.95;;
40154;SDS011;25875;48.202;16.334;2023-03-12T05:41:39;8.52;;;4.93;;
40154;SDS011;25875;48.202;16.334;2023-03-12T05:44:08;6.65;;;3.90;;
40154;SDS011;25875;48.202;16.334;2023-03-12T05:46:37;5.93;;;4.20;;
40154;SDS011;25875;48.202;16.334;2023-03-12T05:49:04;5.90;;;4.22;;
40154;SDS011;25875;48.202;16.334;2023-03-12T05:51:31;6.25;;;3.58;;
40154;SDS011;25875;48.202;16.334;2023-03-12T05:53:59;5.53;;;3.75;;
40154;SDS011;25875;48.202;16.334;2023-03-12T05:56:26;6.07;;;4.03;;
40154;SDS011;25875;48.202;16.334;2023-03-12T05:58:53;5.53;;;4.47;;
40154;SDS011;25875;48.202;16.334;2023-03-12T06:01:20;4.45;;;3.50;;
40154;SDS011;25875;48.202;16.334;2023-03-12T06:03:49;8.00;;;4.30;;
40154;SDS011;25875;48.202;16.334;2023-03-12T06:06:16;5.10;;;3.42;;
40154;SDS011;25875;48.202;16.334;2023-03-12T06:08:43;6.15;;;3.45;;
40154;SDS011;25875;48.202;16.334;2023-03-12T06:11:12;5.38;;;3.70;;
40154;SDS011;25875;48.202;16.334;2023-03-12T06:13:38;5.78;;;3.40;;
40154;SDS011;25875;48.202;16.334;2023-03-12T06:16:07;5.93;;;3.42;;
40154;SDS011;25875;48.202;16.334;2023-03-12T06:18:37;5.18;;;3.95;;
40154;SDS011;25875;48.202;16.334;2023-03-12T06:21:08;5.82;;;3.92;;
40154;SDS011;25875;48.202;16.334;2023-03-12T06:23:36;5.03;;;4.00;;
40154;SDS011;25875;48.202;16.334;2023-03-12T06:26:03;4.60;;;3.50;;
40154;SDS011;25875;48.202;16.334;2023-03-12T06:28:32;6.57;;;4.15;;
40154;SDS011;25875;48.202;16.334;2023-03-12T06:30:59;5.63;;;3.47;;
40154;SDS011;25875;48.202;16.334;2023-03-12T06:33:27;5.40;;;3.67;;
40154;SDS011;25875;48.202;16.334;2023-03-12T06:35:54;5.72;;;3.42;;
40154;SDS011;25875;48.202;16.334;2023-03-12T06:38:21;4.85;;;3.33;;
40154;SDS011;25875;48.202;16.334;2023-03-12T06:40:55;5.82;;;3.78;;
40154;SDS011;25875;48.202;16.334;2023-03-12T06:43:23;5.35;;;3.75;;
40154;SDS011;25875;48.202;16.334;2023-03-12T06:45:54;5.63;;;3.75;;
40154;SDS011;25875;48.202;16.334;2023-03-12T06:48:22;4.57;;;3.47;;
40154;SDS011;25875;48.202;16.334;2023-03-12T06:50:48;4.32;;;3.05;;
40154;SDS011;25875;48.202;16.334;2023-03-12T06:53:15;4.65;;;3.15;;
40154;SDS011;25875;48.202;16.334;2023-03-12T06:55:42;5.53;;;3.20;;
40154;SDS011;25875;48.202;16.334;2023-03-12T06:58:09;4.68;;;3.15;;
40154;SDS011;25875;48.202;16.334;2023-03-12T07:00:36;4.45;;;2.85;;
40154;SDS011;25875;48.202;16.334;2023-03-12T07:03:04;4.45;;;2.92;;
40154;SDS011;25875;48.202;16.334;2023-03-12T07:05:31;4.32;;;2.92;;
40154;SDS011;25875;48.202;16.334;2023-03-12T07:07:58;5.95;;;3.42;;
40154;SDS011;25875;48.202;16.334;2023-03-12T07:10:25;4.85;;;2.65;;
40154;SDS011;25875;48.202;16.334;2023-03-12T07:12:52;4.00;;;2.33;;
40154;SDS011;25875;48.202;16.334;2023-03-12T07:15:19;3.70;;;2.72;;
40154;SDS011;25875;48.202;16.334;2023-03-12T07:17:45;4.70;;;2.50;;
40154;SDS011;25875;48.202;16.334;2023-03-12T07:20:14;4.03;;;2.58;;
40154;SDS011;25875;48.202;16.334;2023-03-12T07:22:40;4.32;;;2.67;;
40154;SDS011;25875;48.202;16.334;2023-03-12T07:25:08;3.33;;;2.30;;
40154;SDS011;25875;48.202;16.334;2023-03-12T07:27:37;4.70;;;2.45;;
40154;SDS011;25875;48.202;16.334;2023-03-12T07:30:04;6.53;;;3.00;;
40154;SDS011;25875;48.202;16.334;2023-03-12T07:32:32;4.82;;;3.28;;
40154;SDS011;25875;48.202;16.334;2023-03-12T07:35:00;3.45;;;2.20;;
40154;SDS011;25875;48.202;16.334;2023-03-12T07:37:29;3.58;;;2.30;;
40154;SDS011;25875;48.202;16.334;2023-03-12T07:39:55;3.30;;;2.33;;
40154;SDS011;25875;48.202;16.334;2023-03-12T07:42:22;6.43;;;2.50;;
40154;SDS011;25875;48.202;16.334;2023-03-12T07:44:49;5.25;;;2.80;;
40154;SDS011;25875;48.202;16.334;2023-03-12T07:47:16;4.43;;;2.80;;
40154;SDS011;25875;48.202;16.334;2023-03-12T07:49:43;3.90;;;2.35;;
40154;SDS011;25875;48.202;16.334;2023-03-12T07:52:09;3.70;;;2.22;;
40154;SDS011;25875;48.202;16.334;2023-03-12T07:54:38;3.78;;;2.25;;
40154;SDS011;25875;48.202;16.334;2023-03-12T07:57:05;4.65;;;2.70;;
40154;SDS011;25875;48.202;16.334;2023-03-12T07:59:32;5.78;;;2.88;;
40154;SDS011;25875;48.202;16.334;2023-03-12T08:01:58;3.20;;;2.13;;
40154;SDS011;25875;48.202;16.334;2023-03-12T08:04:25;4.22;;;2.70;;
40154;SDS011;25875;48.202;16.334;2023-03-12T08:06:52;4.60;;;2.22;;
40154;SDS011;25875;48.202;16.334;2023-03-12T08:09:19;2.95;;;1.95;;
40154;SDS011;25875;48.202;16.334;2023-03-12T08:11:47;3.97;;;2.42;;
40154;SDS011;25875;48.202;16.334;2023-03-12T08:14:14;2.95;;;2.25;;
40154;SDS011;25875;48.202;16.334;2023-03-12T08:16:40;3.25;;;2.05;;
40154;SDS011;25875;48.202;16.334;2023-03-12T08:19:07;3.40;;;2.25;;
40154;SDS011;25875;48.202;16.334;2023-03-12T08:21:34;4.07;;;2.83;;
40154;SDS011;25875;48.202;16.334;2023-03-12T08:24:01;4.18;;;2.30;;
40154;SDS011;25875;48.202;16.334;2023-03-12T08:26:28;3.35;;;2.28;;
40154;SDS011;25875;48.202;16.334;2023-03-12T08:28:57;3.40;;;2.13;;
40154;SDS011;25875;48.202;16.334;2023-03-12T08:31:24;3.83;;;2.67;;
40154;SDS011;25875;48.202;16.334;2023-03-12T08:33:52;5.03;;;2.90;;
40154;SDS011;25875;48.202;16.334;2023-03-12T08:36:18;3.42;;;2.30;;
40154;SDS011;25875;48.202;16.334;2023-03-12T08:38:45;4.28;;;3.05;;
40154;SDS011;25875;48.202;16.334;2023-03-12T08:41:12;3.65;;;2.42;;
40154;SDS011;25875;48.202;16.334;2023-03-12T08:43:39;3.92;;;2.40;;
40154;SDS011;25875;48.202;16.334;2023-03-12T08:46:07;5.00;;;2.35;;
40154;SDS011;25875;48.202;16.334;2023-03-12T08:48:34;4.13;;;2.55;;
40154;SDS011;25875;48.202;16.334;2023-03-12T08:51:01;4.72;;;2.38;;
40154;SDS011;25875;48.202;16.334;2023-03-12T08:53:30;3.20;;;2.00;;
40154;SDS011;25875;48.202;16.334;2023-03-12T08:55:57;3.80;;;2.20;;
40154;SDS011;25875;48.202;16.334;2023-03-12T08:58:25;4.32;;;2.08;;
40154;SDS011;25875;48.202;16.334;2023-03-12T09:00:52;5.47;;;3.70;;
40154;SDS011;25875;48.202;16.334;2023-03-12T09:03:22;4.10;;;2.60;;
40154;SDS011;25875;48.202;16.334;2023-03-12T09:05:49;3.33;;;1.70;;
40154;SDS011;25875;48.202;16.334;2023-03-12T09:08:16;3.00;;;1.95;;
40154;SDS011;25875;48.202;16.334;2023-03-12T09:10:46;3.05;;;1.90;;
40154;SDS011;25875;48.202;16.334;2023-03-12T09:13:14;3.40;;;1.92;;
40154;SDS011;25875;48.202;16.334;2023-03-12T09:15:41;3.40;;;1.77;;
40154;SDS011;25875;48.202;16.334;2023-03-12T09:18:08;3.50;;;2.05;;
40154;SDS011;25875;48.202;16.334;2023-03-12T09:20:36;3.15;;;1.92;;
40154;SDS011;25875;48.202;16.334;2023-03-12T09:23:03;2.88;;;2.13;;
40154;SDS011;25875;48.202;16.334;2023-03-12T09:25:29;4.35;;;2.05;;
40154;SDS011;25875;48.202;16.334;2023-03-12T09:27:57;3.58;;;2.30;;
40154;SDS011;25875;48.202;16.334;2023-03-12T09:30:26;4.18;;;2.00;;
40154;SDS011;25875;48.202;16.334;2023-03-12T09:32:54;3.97;;;2.17;;
40154;SDS011;25875;48.202;16.334;2023-03-12T09:35:21;3.15;;;2.00;;
40154;SDS011;25875;48.202;16.334;2023-03-12T09:37:49;4.32;;;2.17;;
40154;SDS011;25875;48.202;16.334;2023-03-12T09:40:18;3.85;;;2.38;;
40154;SDS011;25875;48.202;16.334;2023-03-12T09:42:48;7.43;;;2.42;;
40154;SDS011;25875;48.202;16.334;2023-03-12T09:45:19;3.80;;;2.33;;
40154;SDS011;25875;48.202;16.334;2023-03-12T09:47:49;3.60;;;2.30;;
40154;SDS011;25875;48.202;16.334;2023-03-12T09:50:23;4.07;;;2.53;;
40154;SDS011;25875;48.202;16.334;2023-03-12T09:52:54;4.57;;;2.50;;
40154;SDS011;25875;48.202;16.334;2023-03-12T09:55:24;3.90;;;2.70;;
40154;SDS011;25875;48.202;16.334;2023-03-12T09:57:55;3.75;;;2.47;;
40154;SDS011;25875;48.202;16.334;2023-03-12T10:00:25;3.90;;;2.60;;
40154;SDS011;25875;48.202;16.334;2023-03-12T10:03:09;5.53;;;2.50;;
40154;SDS011;25875;48.202;16.334;2023-03-12T10:05:47;4.25;;;2.50;;
40154;SDS011;25875;48.202;16.334;2023-03-12T10:08:24;3.47;;;2.20;;
40154;SDS011;25875;48.202;16.334;2023-03-12T10:11:01;6.13;;;2.80;;
40154;SDS011;25875;48.202;16.334;2023-03-12T10:13:44;3.13;;;2.20;;
40154;SDS011;25875;48.202;16.334;2023-03-12T10:16:22;3.65;;;2.35;;
40154;SDS011;25875;48.202;16.334;2023-03-12T10:19:03;4.13;;;3.05;;
40154;SDS011;25875;48.202;16.334;2023-03-12T10:21:40;4.43;;;2.67;;
40154;SDS011;25875;48.202;16.334;2023-03-12T10:27:12;5.15;;;2.75;;
40154;SDS011;25875;48.202;16.334;2023-03-12T10:29:40;4.30;;;2.63;;
40154;SDS011;25875;48.202;16.334;2023-03-12T10:32:12;5.03;;;2.72;;
40154;SDS011;25875;48.202;16.334;2023-03-12T10:34:42;4.32;;;2.42;;
40154;SDS011;25875;48.202;16.334;2023-03-12T10:37:13;4.38;;;2.78;;
40154;SDS011;25875;48.202;16.334;2023-03-12T10:39:42;3.92;;;2.55;;
40154;SDS011;25875;48.202;16.334;2023-03-12T10:42:13;3.60;;;2.63;;
40154;SDS011;25875;48.202;16.334;2023-03-12T10:44:45;4.70;;;3.40;;
40154;SDS011;25875;48.202;16.334;2023-03-12T10:47:29;4.03;;;2.22;;
40154;SDS011;25875;48.202;16.334;2023-03-12T10:50:13;4.00;;;2.38;;
40154;SDS011;25875;48.202;16.334;2023-03-12T10:52:42;5.50;;;2.55;;
40154;SDS011;25875;48.202;16.334;2023-03-12T10:55:11;3.40;;;2.75;;
40154;SDS011;25875;48.202;16.334;2023-03-12T10:57:46;5.88;;;2.63;;
40154;SDS011;25875;48.202;16.334;2023-03-12T11:00:16;5.55;;;2.72;;
40154;SDS011;25875;48.202;16.334;2023-03-12T11:02:46;5.22;;;3.00;;
40154;SDS011;25875;48.202;16.334;2023-03-12T11:05:23;3.90;;;2.80;;
40154;SDS011;25875;48.202;16.334;2023-03-12T11:07:52;5.07;;;2.88;;
40154;SDS011;25875;48.202;16.334;2023-03-12T11:10:20;3.70;;;2.67;;
40154;SDS011;25875;48.202;16.334;2023-03-12T11:12:55;4.50;;;2.70;;
40154;SDS011;25875;48.202;16.334;2023-03-12T11:15:25;4.20;;;2.78;;
40154;SDS011;25875;48.202;16.334;2023-03-12T11:18:11;4.43;;;2.60;;
40154;SDS011;25875;48.202;16.334;2023-03-12T11:20:44;4.50;;;2.83;;
40154;SDS011;25875;48.202;16.334;2023-03-12T11:23:12;3.55;;;2.78;;
40154;SDS011;25875;48.202;16.334;2023-03-12T11:25:40;4.43;;;2.80;;
40154;SDS011;25875;48.202;16.334;2023-03-12T11:28:16;4.28;;;3.00;;
40154;SDS011;25875;48.202;16.334;2023-03-12T11:30:46;4.80;;;3.78;;
40154;SDS011;25875;48.202;16.334;2023-03-12T11:33:15;4.38;;;3.13;;
40154;SDS011;25875;48.202;16.334;2023-03-12T11:35:44;6.53;;;2.97;;
40154;SDS011;25875;48.202;16.334;2023-03-12T11:38:23;3.95;;;3.05;;
40154;SDS011;25875;48.202;16.334;2023-03-12T11:40:59;5.30;;;3.20;;
40154;SDS011;25875;48.202;16.334;2023-03-12T11:46:38;4.85;;;3.75;;
40154;SDS011;25875;48.202;16.334;2023-03-12T11:49:17;4.15;;;3.30;;
40154;SDS011;25875;48.202;16.334;2023-03-12T11:51:56;6.10;;;3.40;;
40154;SDS011;25875;48.202;16.334;2023-03-12T11:54:37;5.13;;;2.88;;
40154;SDS011;25875;48.202;16.334;2023-03-12T11:57:23;5.90;;;3.30;;
40154;SDS011;25875;48.202;16.334;2023-03-12T12:02:55;5.32;;;3.30;;
40154;SDS011;25875;48.202;16.334;2023-03-12T12:05:41;7.85;;;3.10;;
40154;SDS011;25875;48.202;16.334;2023-03-12T12:08:23;5.63;;;3.20;;
40154;SDS011;25875;48.202;16.334;2023-03-12T12:11:02;4.13;;;3.22;;
40154;SDS011;25875;48.202;16.334;2023-03-12T12:13:37;5.38;;;3.10;;
40154;SDS011;25875;48.202;16.334;2023-03-12T12:19:11;5.15;;;3.80;;
40154;SDS011;25875;48.202;16.334;2023-03-12T12:21:50;5.50;;;3.90;;
40154;SDS011;25875;48.202;16.334;2023-03-12T12:24:30;5.55;;;3.72;;
40154;SDS011;25875;48.202;16.334;2023-03-12T12:27:08;5.78;;;3.30;;
40154;SDS011;25875;48.202;16.334;2023-03-12T12:32:41;4.13;;;3.17;;
40154;SDS011;25875;48.202;16.334;2023-03-12T12:35:24;6.30;;;3.83;;
40154;SDS011;25875;48.202;16.334;2023-03-12T12:37:58;4.43;;;4.03;;
40154;SDS011;25875;48.202;16.334;2023-03-12T12:40:33;3.90;;;3.30;;
40154;SDS011;25875;48.202;16.334;2023-03-12T12:43:04;4.53;;;3.40;;
40154;SDS011;25875;48.202;16.334;2023-03-12T12:45:48;3.97;;;3.08;;
40154;SDS011;25875;48.202;16.334;2023-03-12T12:48:20;3.92;;;2.97;;
40154;SDS011;25875;48.202;16.334;2023-03-12T12:50:51;4.95;;;3.90;;
40154;SDS011;25875;48.202;16.334;2023-03-12T12:53:20;4.53;;;3.60;;
40154;SDS011;25875;48.202;16.334;2023-03-12T12:55:54;4.88;;;3.72;;
40154;SDS011;25875;48.202;16.334;2023-03-12T12:58:35;5.22;;;3.47;;
40154;SDS011;25875;48.202;16.334;2023-03-12T13:01:19;4.80;;;3.13;;
40154;SDS011;25875;48.202;16.334;2023-03-12T13:03:50;5.28;;;4.10;;
40154;SDS011;25875;48.202;16.334;2023-03-12T13:06:19;5.22;;;3.33;;
40154;SDS011;25875;48.202;16.334;2023-03-12T13:08:57;4.13;;;3.30;;
40154;SDS011;25875;48.202;16.334;2023-03-12T13:11:30;3.72;;;3.05;;
40154;SDS011;25875;48.202;16.334;2023-03-12T13:14:19;7.70;;;3.83;;
40154;SDS011;25875;48.202;16.334;2023-03-12T13:19:57;5.75;;;3.75;;
40154;SDS011;25875;48.202;16.334;2023-03-12T13:22:29;4.35;;;3.20;;
40154;SDS011;25875;48.202;16.334;2023-03-12T13:25:10;4.07;;;3.65;;
40154;SDS011;25875;48.202;16.334;2023-03-12T13:27:56;4.93;;;3.53;;
40154;SDS011;25875;48.202;16.334;2023-03-12T13:33:12;5.70;;;3.53;;
40154;SDS011;25875;48.202;16.334;2023-03-12T13:35:50;5.22;;;3.58;;
40154;SDS011;25875;48.202;16.334;2023-03-12T13:38:34;5.93;;;4.30;;
40154;SDS011;25875;48.202;16.334;2023-03-12T13:41:04;4.90;;;3.72;;
40154;SDS011;25875;48.202;16.334;2023-03-12T13:46:34;6.25;;;4.00;;
40154;SDS011;25875;48.202;16.334;2023-03-12T13:49:14;6.15;;;4.20;;
40154;SDS011;25875;48.202;16.334;2023-03-12T13:51:58;5.07;;;3.90;;
40154;SDS011;25875;48.202;16.334;2023-03-12T13:54:38;4.40;;;3.05;;
40154;SDS011;25875;48.202;16.334;2023-03-12T13:57:20;5.45;;;3.13;;
40154;SDS011;25875;48.202;16.334;2023-03-12T13:59:51;5.00;;;3.20;;
40154;SDS011;25875;48.202;16.334;2023-03-12T14:02:21;4.45;;;3.00;;
40154;SDS011;25875;48.202;16.334;2023-03-12T14:04:50;5.05;;;3.03;;
40154;SDS011;25875;48.202;16.334;2023-03-12T14:10:19;3.90;;;2.70;;
40154;SDS011;25875;48.202;16.334;2023-03-12T14:12:58;4.18;;;3.10;;
40154;SDS011;25875;48.202;16.334;2023-03-12T14:15:34;4.25;;;2.95;;
40154;SDS011;25875;48.202;16.334;2023-03-12T14:18:12;4.05;;;3.38;;
40154;SDS011;25875;48.202;16.334;2023-03-12T14:20:47;5.72;;;4.22;;
40154;SDS011;25875;48.202;16.334;2023-03-12T14:23:20;3.80;;;3.20;;
40154;SDS011;25875;48.202;16.334;2023-03-12T14:25:52;5.45;;;3.50;;
40154;SDS011;25875;48.202;16.334;2023-03-12T14:28:23;6.80;;;3.45;;
40154;SDS011;25875;48.202;16.334;2023-03-12T14:30:54;5.72;;;3.58;;
40154;SDS011;25875;48.202;16.334;2023-03-12T14:33:24;6.32;;;3.88;;
40154;SDS011;25875;48.202;16.334;2023-03-12T14:35:57;4.93;;;3.67;;
40154;SDS011;25875;48.202;16.334;2023-03-12T14:38:33;4.80;;;3.92;;
40154;SDS011;25875;48.202;16.334;2023-03-12T14:41:05;5.18;;;3.65;;
40154;SDS011;25875;48.202;16.334;2023-03-12T14:43:40;5.13;;;4.00;;
40154;SDS011;25875;48.202;16.334;2023-03-12T14:46:14;4.45;;;3.60;;
40154;SDS011;25875;48.202;16.334;2023-03-12T14:48:45;5.50;;;3.95;;
40154;SDS011;25875;48.202;16.334;2023-03-12T14:51:18;4.32;;;3.45;;
40154;SDS011;25875;48.202;16.334;2023-03-12T14:53:49;4.68;;;3.25;;
40154;SDS011;25875;48.202;16.334;2023-03-12T14:56:21;4.18;;;3.28;;
40154;SDS011;25875;48.202;16.334;2023-03-12T14:58:53;5.40;;;3.90;;
40154;SDS011;25875;48.202;16.334;2023-03-12T15:01:23;4.22;;;3.33;;
40154;SDS011;25875;48.202;16.334;2023-03-12T15:03:53;5.72;;;3.72;;
40154;SDS011;25875;48.202;16.334;2023-03-12T15:06:25;4.40;;;3.30;;
40154;SDS011;25875;48.202;16.334;2023-03-12T15:08:57;5.35;;;3.28;;
40154;SDS011;25875;48.202;16.334;2023-03-12T15:11:28;6.30;;;3.42;;
40154;SDS011;25875;48.202;16.334;2023-03-12T15:14:00;5.13;;;3.72;;
40154;SDS011;25875;48.202;16.334;2023-03-12T15:16:30;5.50;;;4.35;;